Aviation Digital Data Service (ADDS)

Output produced by METARs form (0531 UTC 19 March 2019)
found at http://www.aviationweather.gov/metar/data/
 
METAR text: RCSS 190500Z 08014KT 9999 FEW012 24/17 Q1016 NOSIG RMK A3002
Conditions at: RCSS (SUNGSHAN/TAIPEI , TW) observed 0500 UTC 19 March 2019
Temperature: 24.0°C (75°F)
Dewpoint: 17.0°C (63°F) [RH = 65%]
Pressure (altimeter): 30.00 inches Hg (1016.0 mb)
Winds: from the E (80 degrees) at 16 MPH (14 knots; 7.2 m/s)
Visibility: 6 or more miles (10+ km)
Ceiling: at least 12,000 feet AGL
Clouds: few clouds at 1200 feet AGL
Weather: no significant weather observed at this time

METAR text: RCSS 190430Z 07011KT 040V110 9999 FEW010 25/18 Q1016 NOSIG RMK A3003
Conditions at: RCSS (SUNGSHAN/TAIPEI , TW) observed 0430 UTC 19 March 2019
Temperature: 25.0°C (77°F)
Dewpoint: 18.0°C (64°F) [RH = 65%]
Pressure (altimeter): 30.00 inches Hg (1016.0 mb)
Winds: from the ENE (70 degrees) at 13 MPH (11 knots; 5.7 m/s)
Visibility: 6 or more miles (10+ km)
Ceiling: at least 12,000 feet AGL
Clouds: few clouds at 1000 feet AGL
Weather: no significant weather observed at this time

METAR text: RCSS 190400Z 08014KT 9999 FEW010 24/18 Q1017 NOSIG RMK A3004
Conditions at: RCSS (SUNGSHAN/TAIPEI , TW) observed 0400 UTC 19 March 2019
Temperature: 24.0°C (75°F)
Dewpoint: 18.0°C (64°F) [RH = 69%]
Pressure (altimeter): 30.03 inches Hg (1017.0 mb)
Winds: from the E (80 degrees) at 16 MPH (14 knots; 7.2 m/s)
Visibility: 6 or more miles (10+ km)
Ceiling: at least 12,000 feet AGL
Clouds: few clouds at 1000 feet AGL
Weather: no significant weather observed at this time

METAR text: RCSS 190330Z 08012KT 9999 FEW010 SCT025 24/18 Q1018 NOSIG RMK A3006
Conditions at: RCSS (SUNGSHAN/TAIPEI , TW) observed 0330 UTC 19 March 2019
Temperature: 24.0°C (75°F)
Dewpoint: 18.0°C (64°F) [RH = 69%]
Pressure (altimeter): 30.06 inches Hg (1018.0 mb)
Winds: from the E (80 degrees) at 14 MPH (12 knots; 6.2 m/s)
Visibility: 6 or more miles (10+ km)
Ceiling: at least 12,000 feet AGL
Clouds: few clouds at 1000 feet AGL
scattered clouds at 2500 feet AGL
Weather: no significant weather observed at this time

METAR text: RCSS 190300Z 09013KT 9999 FEW010 SCT025 BKN045 23/18 Q1018 NOSIG RMK A3007
Conditions at: RCSS (SUNGSHAN/TAIPEI , TW) observed 0300 UTC 19 March 2019
Temperature: 23.0°C (73°F)
Dewpoint: 18.0°C (64°F) [RH = 73%]
Pressure (altimeter): 30.06 inches Hg (1018.0 mb)
Winds: from the E (90 degrees) at 15 MPH (13 knots; 6.7 m/s)
Visibility: 6 or more miles (10+ km)
Ceiling: 4500 feet AGL
Clouds: few clouds at 1000 feet AGL
scattered clouds at 2500 feet AGL
broken clouds at 4500 feet AGL
Weather: no significant weather observed at this time

METAR text: RCSS 190230Z 09011KT 9999 FEW012 SCT025 BKN040 23/18 Q1018 NOSIG RMK A3008
Conditions at: RCSS (SUNGSHAN/TAIPEI , TW) observed 0230 UTC 19 March 2019
Temperature: 23.0°C (73°F)
Dewpoint: 18.0°C (64°F) [RH = 73%]
Pressure (altimeter): 30.06 inches Hg (1018.0 mb)
Winds: from the E (90 degrees) at 13 MPH (11 knots; 5.7 m/s)
Visibility: 6 or more miles (10+ km)
Ceiling: 4000 feet AGL
Clouds: few clouds at 1200 feet AGL
scattered clouds at 2500 feet AGL
broken clouds at 4000 feet AGL
Weather: no significant weather observed at this time

METAR text: RCSS 190200Z 09014KT 9999 FEW012 SCT025 BKN040 23/17 Q1018 NOSIG RMK A3008
Conditions at: RCSS (SUNGSHAN/TAIPEI , TW) observed 0200 UTC 19 March 2019
Temperature: 23.0°C (73°F)
Dewpoint: 17.0°C (63°F) [RH = 69%]
Pressure (altimeter): 30.06 inches Hg (1018.0 mb)
Winds: from the E (90 degrees) at 16 MPH (14 knots; 7.2 m/s)
Visibility: 6 or more miles (10+ km)
Ceiling: 4000 feet AGL
Clouds: few clouds at 1200 feet AGL
scattered clouds at 2500 feet AGL
broken clouds at 4000 feet AGL
Weather: no significant weather observed at this time

METAR text: RCSS 190130Z 09011KT 9999 FEW012 BKN025 BKN038 22/17 Q1018 NOSIG RMK A3007
Conditions at: RCSS (SUNGSHAN/TAIPEI , TW) observed 0130 UTC 19 March 2019
Temperature: 22.0°C (72°F)
Dewpoint: 17.0°C (63°F) [RH = 73%]
Pressure (altimeter): 30.06 inches Hg (1018.0 mb)
Winds: from the E (90 degrees) at 13 MPH (11 knots; 5.7 m/s)
Visibility: 6 or more miles (10+ km)
Ceiling: 2500 feet AGL
Clouds: few clouds at 1200 feet AGL
broken clouds at 2500 feet AGL
broken clouds at 3800 feet AGL
Weather: no significant weather observed at this time

METAR text: RCSS 190100Z 10010KT 9000 FEW012 BKN025 BKN038 21/17 Q1018 NOSIG RMK A3007
Conditions at: RCSS (SUNGSHAN/TAIPEI , TW) observed 0100 UTC 19 March 2019
Temperature: 21.0°C (70°F)
Dewpoint: 17.0°C (63°F) [RH = 78%]
Pressure (altimeter): 30.06 inches Hg (1018.0 mb)
Winds: from the E (100 degrees) at 12 MPH (10 knots; 5.1 m/s)
Visibility: 6 miles ( 9 km)
Ceiling: 2500 feet AGL
Clouds: few clouds at 1200 feet AGL
broken clouds at 2500 feet AGL
broken clouds at 3800 feet AGL
Weather: no significant weather observed at this time

METAR text: RCSS 190030Z 10010KT 9000 FEW010 BKN025 BKN038 21/17 Q1018 NOSIG RMK A3006
Conditions at: RCSS (SUNGSHAN/TAIPEI , TW) observed 0030 UTC 19 March 2019
Temperature: 21.0°C (70°F)
Dewpoint: 17.0°C (63°F) [RH = 78%]
Pressure (altimeter): 30.06 inches Hg (1018.0 mb)
Winds: from the E (100 degrees) at 12 MPH (10 knots; 5.1 m/s)
Visibility: 6 miles ( 9 km)
Ceiling: 2500 feet AGL
Clouds: few clouds at 1000 feet AGL
broken clouds at 2500 feet AGL
broken clouds at 3800 feet AGL
Weather: no significant weather observed at this time

METAR text: RCSS 190000Z 10006KT 9000 FEW010 BKN025 BKN038 21/17 Q1018 NOSIG RMK A3006
Conditions at: RCSS (SUNGSHAN/TAIPEI , TW) observed 0000 UTC 19 March 2019
Temperature: 21.0°C (70°F)
Dewpoint: 17.0°C (63°F) [RH = 78%]
Pressure (altimeter): 30.06 inches Hg (1018.0 mb)
Winds: from the E (100 degrees) at 7 MPH (6 knots; 3.1 m/s)
Visibility: 6 miles ( 9 km)
Ceiling: 2500 feet AGL
Clouds: few clouds at 1000 feet AGL
broken clouds at 2500 feet AGL
broken clouds at 3800 feet AGL
Weather: no significant weather observed at this time

METAR text: RCSS 182330Z 09006KT 9000 FEW012 BKN022 BKN035 20/17 Q1017 NOSIG RMK A3005
Conditions at: RCSS (SUNGSHAN/TAIPEI , TW) observed 2330 UTC 18 March 2019
Temperature: 20.0°C (68°F)
Dewpoint: 17.0°C (63°F) [RH = 83%]
Pressure (altimeter): 30.03 inches Hg (1017.0 mb)
Winds: from the E (90 degrees) at 7 MPH (6 knots; 3.1 m/s)
Visibility: 6 miles ( 9 km)
Ceiling: 2200 feet AGL
Clouds: few clouds at 1200 feet AGL
broken clouds at 2200 feet AGL
broken clouds at 3500 feet AGL
Weather: no significant weather observed at this time

METAR text: RCSS 182300Z 10006KT 9999 FEW010 BKN018 BKN040 19/17 Q1017 NOSIG RMK A3004
Conditions at: RCSS (SUNGSHAN/TAIPEI , TW) observed 2300 UTC 18 March 2019
Temperature: 19.0°C (66°F)
Dewpoint: 17.0°C (63°F) [RH = 88%]
Pressure (altimeter): 30.03 inches Hg (1017.0 mb)
Winds: from the E (100 degrees) at 7 MPH (6 knots; 3.1 m/s)
Visibility: 6 or more miles (10+ km)
Ceiling: 1800 feet AGL
Clouds: few clouds at 1000 feet AGL
broken clouds at 1800 feet AGL
broken clouds at 4000 feet AGL
Weather: no significant weather observed at this time

METAR text: RCSS 182230Z 10006KT 9999 FEW010 BKN018 BKN045 19/17 Q1016 NOSIG RMK A3003
Conditions at: RCSS (SUNGSHAN/TAIPEI , TW) observed 2230 UTC 18 March 2019
Temperature: 19.0°C (66°F)
Dewpoint: 17.0°C (63°F) [RH = 88%]
Pressure (altimeter): 30.00 inches Hg (1016.0 mb)
Winds: from the E (100 degrees) at 7 MPH (6 knots; 3.1 m/s)
Visibility: 6 or more miles (10+ km)
Ceiling: 1800 feet AGL
Clouds: few clouds at 1000 feet AGL
broken clouds at 1800 feet AGL
broken clouds at 4500 feet AGL
Weather: no significant weather observed at this time

METAR text: RCSS 182200Z 09004KT 9999 FEW010 BKN016 19/17 Q1016 NOSIG RMK A3002
Conditions at: RCSS (SUNGSHAN/TAIPEI , TW) observed 2200 UTC 18 March 2019
Temperature: 19.0°C (66°F)
Dewpoint: 17.0°C (63°F) [RH = 88%]
Pressure (altimeter): 30.00 inches Hg (1016.0 mb)
Winds: from the E (90 degrees) at 5 MPH (4 knots; 2.1 m/s)
Visibility: 6 or more miles (10+ km)
Ceiling: 1600 feet AGL
Clouds: few clouds at 1000 feet AGL
broken clouds at 1600 feet AGL
Weather: no significant weather observed at this time

METAR text: RCSS 182100Z 10003KT 8000 FEW008 BKN018 18/17 Q1015 NOSIG RMK A2998
Conditions at: RCSS (SUNGSHAN/TAIPEI , TW) observed 2100 UTC 18 March 2019
Temperature: 18.0°C (64°F)
Dewpoint: 17.0°C (63°F) [RH = 94%]
Pressure (altimeter): 29.97 inches Hg (1015.0 mb)
Winds: from the E (100 degrees) at 3 MPH (3 knots; 1.5 m/s)
Visibility: 5 miles ( 8 km)
Ceiling: 1800 feet AGL
Clouds: few clouds at 800 feet AGL
broken clouds at 1800 feet AGL
Weather: no significant weather observed at this time

METAR text: RCSS 182000Z 10003KT 6000 FEW010 BKN020 18/17 Q1015 NOSIG RMK A2998
Conditions at: RCSS (SUNGSHAN/TAIPEI , TW) observed 2000 UTC 18 March 2019
Temperature: 18.0°C (64°F)
Dewpoint: 17.0°C (63°F) [RH = 94%]
Pressure (altimeter): 29.97 inches Hg (1015.0 mb)
Winds: from the E (100 degrees) at 3 MPH (3 knots; 1.5 m/s)
Visibility: 4 miles ( 6 km)
Ceiling: 2000 feet AGL
Clouds: few clouds at 1000 feet AGL
broken clouds at 2000 feet AGL
Weather: no significant weather observed at this time

METAR text: RCSS 181900Z 08003KT 7000 FEW010 BKN018 19/17 Q1015 NOSIG RMK A2998
Conditions at: RCSS (SUNGSHAN/TAIPEI , TW) observed 1900 UTC 18 March 2019
Temperature: 19.0°C (66°F)
Dewpoint: 17.0°C (63°F) [RH = 88%]
Pressure (altimeter): 29.97 inches Hg (1015.0 mb)
Winds: from the E (80 degrees) at 3 MPH (3 knots; 1.5 m/s)
Visibility: 4 miles ( 7 km)
Ceiling: 1800 feet AGL
Clouds: few clouds at 1000 feet AGL
broken clouds at 1800 feet AGL
Weather: no significant weather observed at this time

METAR text: RCSS 181800Z 09006KT 7000 FEW010 SCT020 18/17 Q1015 NOSIG RMK A2998
Conditions at: RCSS (SUNGSHAN/TAIPEI , TW) observed 1800 UTC 18 March 2019
Temperature: 18.0°C (64°F)
Dewpoint: 17.0°C (63°F) [RH = 94%]
Pressure (altimeter): 29.97 inches Hg (1015.0 mb)
Winds: from the E (90 degrees) at 7 MPH (6 knots; 3.1 m/s)
Visibility: 4 miles ( 7 km)
Ceiling: at least 12,000 feet AGL
Clouds: few clouds at 1000 feet AGL
scattered clouds at 2000 feet AGL
Weather: no significant weather observed at this time

METAR text: RCSS 181700Z 09005KT 7000 FEW010 BKN018 BKN040 20/18 Q1015 NOSIG RMK A3000
Conditions at: RCSS (SUNGSHAN/TAIPEI , TW) observed 1700 UTC 18 March 2019
Temperature: 20.0°C (68°F)
Dewpoint: 18.0°C (64°F) [RH = 88%]
Pressure (altimeter): 29.97 inches Hg (1015.0 mb)
Winds: from the E (90 degrees) at 6 MPH (5 knots; 2.6 m/s)
Visibility: 4 miles ( 7 km)
Ceiling: 1800 feet AGL
Clouds: few clouds at 1000 feet AGL
broken clouds at 1800 feet AGL
broken clouds at 4000 feet AGL
Weather: no significant weather observed at this time

METAR text: RCSS 181600Z VRB01KT 6000 FEW010 BKN018 BKN040 20/18 Q1016 NOSIG RMK A3002
Conditions at: RCSS (SUNGSHAN/TAIPEI , TW) observed 1600 UTC 18 March 2019
Temperature: 20.0°C (68°F)
Dewpoint: 18.0°C (64°F) [RH = 88%]
Pressure (altimeter): 30.00 inches Hg (1016.0 mb)
Winds: variable direction winds at 1 MPH (1 knots; 0.5 m/s)
Visibility: 4 miles ( 6 km)
Ceiling: 1800 feet AGL
Clouds: few clouds at 1000 feet AGL
broken clouds at 1800 feet AGL
broken clouds at 4000 feet AGL
Weather: no significant weather observed at this time

METAR text: RCSS 181530Z 10003KT 6000 FEW008 BKN020 BKN045 20/18 Q1016 NOSIG RMK A3002
Conditions at: RCSS (SUNGSHAN/TAIPEI , TW) observed 1530 UTC 18 March 2019
Temperature: 20.0°C (68°F)
Dewpoint: 18.0°C (64°F) [RH = 88%]
Pressure (altimeter): 30.00 inches Hg (1016.0 mb)
Winds: from the E (100 degrees) at 3 MPH (3 knots; 1.5 m/s)
Visibility: 4 miles ( 6 km)
Ceiling: 2000 feet AGL
Clouds: few clouds at 800 feet AGL
broken clouds at 2000 feet AGL
broken clouds at 4500 feet AGL
Weather: no significant weather observed at this time

METAR text: RCSS 181500Z VRB02KT 6000 FEW010 BKN025 BKN045 20/18 Q1016 NOSIG RMK A3002
Conditions at: RCSS (SUNGSHAN/TAIPEI , TW) observed 1500 UTC 18 March 2019
Temperature: 20.0°C (68°F)
Dewpoint: 18.0°C (64°F) [RH = 88%]
Pressure (altimeter): 30.00 inches Hg (1016.0 mb)
Winds: variable direction winds at 2 MPH (2 knots; 1.0 m/s)
Visibility: 4 miles ( 6 km)
Ceiling: 2500 feet AGL
Clouds: few clouds at 1000 feet AGL
broken clouds at 2500 feet AGL
broken clouds at 4500 feet AGL
Weather: no significant weather observed at this time

METAR text: RCSS 181430Z VRB01KT 6000 FEW010 SCT030 BKN080 20/18 Q1016 NOSIG RMK A3002
Conditions at: RCSS (SUNGSHAN/TAIPEI , TW) observed 1430 UTC 18 March 2019
Temperature: 20.0°C (68°F)
Dewpoint: 18.0°C (64°F) [RH = 88%]
Pressure (altimeter): 30.00 inches Hg (1016.0 mb)
Winds: variable direction winds at 1 MPH (1 knots; 0.5 m/s)
Visibility: 4 miles ( 6 km)
Ceiling: 8000 feet AGL
Clouds: few clouds at 1000 feet AGL
scattered clouds at 3000 feet AGL
broken clouds at 8000 feet AGL
Weather: no significant weather observed at this time

METAR text: RCSS 181400Z 27003KT 250V310 6000 FEW012 BKN035 BKN080 20/18 Q1016 NOSIG RMK A3002
Conditions at: RCSS (SUNGSHAN/TAIPEI , TW) observed 1400 UTC 18 March 2019
Temperature: 20.0°C (68°F)
Dewpoint: 18.0°C (64°F) [RH = 88%]
Pressure (altimeter): 30.00 inches Hg (1016.0 mb)
Winds: from the W (270 degrees) at 3 MPH (3 knots; 1.5 m/s)
Visibility: 4 miles ( 6 km)
Ceiling: 3500 feet AGL
Clouds: few clouds at 1200 feet AGL
broken clouds at 3500 feet AGL
broken clouds at 8000 feet AGL
Weather: no significant weather observed at this time

METAR text: RCSS 181330Z 28003KT 240V310 6000 FEW010 BKN035 BKN100 20/18 Q1016 NOSIG RMK A3001
Conditions at: RCSS (SUNGSHAN/TAIPEI , TW) observed 1330 UTC 18 March 2019
Temperature: 20.0°C (68°F)
Dewpoint: 18.0°C (64°F) [RH = 88%]
Pressure (altimeter): 30.00 inches Hg (1016.0 mb)
Winds: from the W (280 degrees) at 3 MPH (3 knots; 1.5 m/s)
Visibility: 4 miles ( 6 km)
Ceiling: 3500 feet AGL
Clouds: few clouds at 1000 feet AGL
broken clouds at 3500 feet AGL
broken clouds at 10000 feet AGL
Weather: no significant weather observed at this time

METAR text: RCSS 181300Z 06003KT 010V100 7000 FEW012 SCT045 BKN100 20/18 Q1015 NOSIG RMK A3000
Conditions at: RCSS (SUNGSHAN/TAIPEI , TW) observed 1300 UTC 18 March 2019
Temperature: 20.0°C (68°F)
Dewpoint: 18.0°C (64°F) [RH = 88%]
Pressure (altimeter): 29.97 inches Hg (1015.0 mb)
Winds: from the ENE (60 degrees) at 3 MPH (3 knots; 1.5 m/s)
Visibility: 4 miles ( 7 km)
Ceiling: 10000 feet AGL
Clouds: few clouds at 1200 feet AGL
scattered clouds at 4500 feet AGL
broken clouds at 10000 feet AGL
Weather: no significant weather observed at this time

METAR text: RCSS 181230Z VRB02KT 7000 FEW014 SCT100 20/18 Q1015 NOSIG RMK A3000
Conditions at: RCSS (SUNGSHAN/TAIPEI , TW) observed 1230 UTC 18 March 2019
Temperature: 20.0°C (68°F)
Dewpoint: 18.0°C (64°F) [RH = 88%]
Pressure (altimeter): 29.97 inches Hg (1015.0 mb)
Winds: variable direction winds at 2 MPH (2 knots; 1.0 m/s)
Visibility: 4 miles ( 7 km)
Ceiling: at least 12,000 feet AGL
Clouds: few clouds at 1400 feet AGL
scattered clouds at 10000 feet AGL
Weather: no significant weather observed at this time

METAR text: RCSS 181200Z 28005KT 7000 FEW010 SCT100 21/18 Q1015 NOSIG RMK A2999
Conditions at: RCSS (SUNGSHAN/TAIPEI , TW) observed 1200 UTC 18 March 2019
Temperature: 21.0°C (70°F)
Dewpoint: 18.0°C (64°F) [RH = 83%]
Pressure (altimeter): 29.97 inches Hg (1015.0 mb)
Winds: from the W (280 degrees) at 6 MPH (5 knots; 2.6 m/s)
Visibility: 4 miles ( 7 km)
Ceiling: at least 12,000 feet AGL
Clouds: few clouds at 1000 feet AGL
scattered clouds at 10000 feet AGL
Weather: no significant weather observed at this time

METAR text: RCSS 181130Z 26005KT 7000 FEW012 BKN100 21/18 Q1015 NOSIG RMK A2998
Conditions at: RCSS (SUNGSHAN/TAIPEI , TW) observed 1130 UTC 18 March 2019
Temperature: 21.0°C (70°F)
Dewpoint: 18.0°C (64°F) [RH = 83%]
Pressure (altimeter): 29.97 inches Hg (1015.0 mb)
Winds: from the W (260 degrees) at 6 MPH (5 knots; 2.6 m/s)
Visibility: 4 miles ( 7 km)
Ceiling: 10000 feet AGL
Clouds: few clouds at 1200 feet AGL
broken clouds at 10000 feet AGL
Weather: no significant weather observed at this time

METAR text: RCSS 181100Z 28005KT 8000 FEW012 BKN100 22/18 Q1014 NOSIG RMK A2997
Conditions at: RCSS (SUNGSHAN/TAIPEI , TW) observed 1100 UTC 18 March 2019
Temperature: 22.0°C (72°F)
Dewpoint: 18.0°C (64°F) [RH = 78%]
Pressure (altimeter): 29.94 inches Hg (1014.0 mb)
Winds: from the W (280 degrees) at 6 MPH (5 knots; 2.6 m/s)
Visibility: 5 miles ( 8 km)
Ceiling: 10000 feet AGL
Clouds: few clouds at 1200 feet AGL
broken clouds at 10000 feet AGL
Weather: no significant weather observed at this time

METAR text: RCSS 181030Z 29003KT 260V330 9000 FEW015 BKN100 22/18 Q1014 NOSIG RMK A2996
Conditions at: RCSS (SUNGSHAN/TAIPEI , TW) observed 1030 UTC 18 March 2019
Temperature: 22.0°C (72°F)
Dewpoint: 18.0°C (64°F) [RH = 78%]
Pressure (altimeter): 29.94 inches Hg (1014.0 mb)
Winds: from the WNW (290 degrees) at 3 MPH (3 knots; 1.5 m/s)
Visibility: 6 miles ( 9 km)
Ceiling: 10000 feet AGL
Clouds: few clouds at 1500 feet AGL
broken clouds at 10000 feet AGL
Weather: no significant weather observed at this time

METAR text: RCSS 181000Z VRB02KT 9000 FEW015 22/18 Q1014 NOSIG RMK A2996
Conditions at: RCSS (SUNGSHAN/TAIPEI , TW) observed 1000 UTC 18 March 2019
Temperature: 22.0°C (72°F)
Dewpoint: 18.0°C (64°F) [RH = 78%]
Pressure (altimeter): 29.94 inches Hg (1014.0 mb)
Winds: variable direction winds at 2 MPH (2 knots; 1.0 m/s)
Visibility: 6 miles ( 9 km)
Ceiling: at least 12,000 feet AGL
Clouds: few clouds at 1500 feet AGL
Weather: no significant weather observed at this time

METAR text: RCSS 180930Z 29003KT 250V360 9999 FEW018 SCT080 23/18 Q1014 NOSIG RMK A2996
Conditions at: RCSS (SUNGSHAN/TAIPEI , TW) observed 0930 UTC 18 March 2019
Temperature: 23.0°C (73°F)
Dewpoint: 18.0°C (64°F) [RH = 73%]
Pressure (altimeter): 29.94 inches Hg (1014.0 mb)
Winds: from the WNW (290 degrees) at 3 MPH (3 knots; 1.5 m/s)
Visibility: 6 or more miles (10+ km)
Ceiling: at least 12,000 feet AGL
Clouds: few clouds at 1800 feet AGL
scattered clouds at 8000 feet AGL
Weather: no significant weather observed at this time

METAR text: RCSS 180900Z 30005KT 260V330 9999 FEW018 BKN080 23/18 Q1014 NOSIG RMK A2996
Conditions at: RCSS (SUNGSHAN/TAIPEI , TW) observed 0900 UTC 18 March 2019
Temperature: 23.0°C (73°F)
Dewpoint: 18.0°C (64°F) [RH = 73%]
Pressure (altimeter): 29.94 inches Hg (1014.0 mb)
Winds: from the WNW (300 degrees) at 6 MPH (5 knots; 2.6 m/s)
Visibility: 6 or more miles (10+ km)
Ceiling: 8000 feet AGL
Clouds: few clouds at 1800 feet AGL
broken clouds at 8000 feet AGL
Weather: no significant weather observed at this time

METAR text: RCSS 180836Z 29005KT 230V340 9999 FEW015 SCT025 BKN100 23/18 Q1014 NOSIG RMK A2997
Conditions at: RCSS (SUNGSHAN/TAIPEI , TW) observed 0836 UTC 18 March 2019
Temperature: 23.0°C (73°F)
Dewpoint: 18.0°C (64°F) [RH = 73%]
Pressure (altimeter): 29.94 inches Hg (1014.0 mb)
Winds: from the WNW (290 degrees) at 6 MPH (5 knots; 2.6 m/s)
Visibility: 6 or more miles (10+ km)
Ceiling: 10000 feet AGL
Clouds: few clouds at 1500 feet AGL
scattered clouds at 2500 feet AGL
broken clouds at 10000 feet AGL
Weather: no significant weather observed at this time

METAR text: RCSS 180830Z 30008KT 9999 FEW015 SCT025 BKN150 23/19 Q1014 NOSIG RMK A2997
Conditions at: RCSS (SUNGSHAN/TAIPEI , TW) observed 0830 UTC 18 March 2019
Temperature: 23.0°C (73°F)
Dewpoint: 19.0°C (66°F) [RH = 78%]
Pressure (altimeter): 29.94 inches Hg (1014.0 mb)
Winds: from the WNW (300 degrees) at 9 MPH (8 knots; 4.1 m/s)
Visibility: 6 or more miles (10+ km)
Ceiling: 15000 feet AGL
Clouds: few clouds at 1500 feet AGL
scattered clouds at 2500 feet AGL
broken clouds at 15000 feet AGL
Weather: no significant weather observed at this time

METAR text: RCSS 180800Z 30008KT 250V340 9999 FEW015 BKN022 24/19 Q1014 NOSIG RMK A2997
Conditions at: RCSS (SUNGSHAN/TAIPEI , TW) observed 0800 UTC 18 March 2019
Temperature: 24.0°C (75°F)
Dewpoint: 19.0°C (66°F) [RH = 74%]
Pressure (altimeter): 29.94 inches Hg (1014.0 mb)
Winds: from the WNW (300 degrees) at 9 MPH (8 knots; 4.1 m/s)
Visibility: 6 or more miles (10+ km)
Ceiling: 2200 feet AGL
Clouds: few clouds at 1500 feet AGL
broken clouds at 2200 feet AGL
Weather: no significant weather observed at this time

METAR text: RCSS 180730Z 30008KT 250V340 9999 FEW015 24/19 Q1014 NOSIG RMK A2997
Conditions at: RCSS (SUNGSHAN/TAIPEI , TW) observed 0730 UTC 18 March 2019
Temperature: 24.0°C (75°F)
Dewpoint: 19.0°C (66°F) [RH = 74%]
Pressure (altimeter): 29.94 inches Hg (1014.0 mb)
Winds: from the WNW (300 degrees) at 9 MPH (8 knots; 4.1 m/s)
Visibility: 6 or more miles (10+ km)
Ceiling: at least 12,000 feet AGL
Clouds: few clouds at 1500 feet AGL
Weather: no significant weather observed at this time

METAR text: RCSS 180700Z 30009KT 270V330 9999 FEW012 SCT025 24/19 Q1014 NOSIG RMK A2996
Conditions at: RCSS (SUNGSHAN/TAIPEI , TW) observed 0700 UTC 18 March 2019
Temperature: 24.0°C (75°F)
Dewpoint: 19.0°C (66°F) [RH = 74%]
Pressure (altimeter): 29.94 inches Hg (1014.0 mb)
Winds: from the WNW (300 degrees) at 10 MPH (9 knots; 4.6 m/s)
Visibility: 6 or more miles (10+ km)
Ceiling: at least 12,000 feet AGL
Clouds: few clouds at 1200 feet AGL
scattered clouds at 2500 feet AGL
Weather: no significant weather observed at this time

METAR text: RCSS 180630Z 30010KT 270V330 9999 FEW015 SCT025 BKN200 24/20 Q1014 NOSIG RMK 30009KT/R10 A2996
Conditions at: RCSS (SUNGSHAN/TAIPEI , TW) observed 0630 UTC 18 March 2019
Temperature: 24.0°C (75°F)
Dewpoint: 20.0°C (68°F) [RH = 78%]
Pressure (altimeter): 29.94 inches Hg (1014.0 mb)
Winds: from the WNW (300 degrees) at 12 MPH (10 knots; 5.1 m/s)
Visibility: 6 or more miles (10+ km)
Ceiling: 20000 feet AGL
Clouds: few clouds at 1500 feet AGL
scattered clouds at 2500 feet AGL
broken clouds at 20000 feet AGL
Weather: no significant weather observed at this time

METAR text: RCSS 180600Z 30011KT 9999 FEW018 SCT025 BKN060 24/19 Q1014 NOSIG RMK 30008KT/R10 A2997
Conditions at: RCSS (SUNGSHAN/TAIPEI , TW) observed 0600 UTC 18 March 2019
Temperature: 24.0°C (75°F)
Dewpoint: 19.0°C (66°F) [RH = 74%]
Pressure (altimeter): 29.94 inches Hg (1014.0 mb)
Winds: from the WNW (300 degrees) at 13 MPH (11 knots; 5.7 m/s)
Visibility: 6 or more miles (10+ km)
Ceiling: 6000 feet AGL
Clouds: few clouds at 1800 feet AGL
scattered clouds at 2500 feet AGL
broken clouds at 6000 feet AGL
Weather: no significant weather observed at this time

METAR text: RCSS 180530Z 29010KT 260V320 9999 FEW015 SCT025 BKN060 25/20 Q1014 NOSIG RMK 31008KT/R10 A2997
Conditions at: RCSS (SUNGSHAN/TAIPEI , TW) observed 0530 UTC 18 March 2019
Temperature: 25.0°C (77°F)
Dewpoint: 20.0°C (68°F) [RH = 74%]
Pressure (altimeter): 29.94 inches Hg (1014.0 mb)
Winds: from the WNW (290 degrees) at 12 MPH (10 knots; 5.1 m/s)
Visibility: 6 or more miles (10+ km)
Ceiling: 6000 feet AGL
Clouds: few clouds at 1500 feet AGL
scattered clouds at 2500 feet AGL
broken clouds at 6000 feet AGL
Weather: no significant weather observed at this time

METAR text: RCSS 180500Z 31009KT 280V340 9000 FEW015 BKN025 BKN060 25/20 Q1015 NOSIG RMK 30008KT/R10 A2998
Conditions at: RCSS (SUNGSHAN/TAIPEI , TW) observed 0500 UTC 18 March 2019
Temperature: 25.0°C (77°F)
Dewpoint: 20.0°C (68°F) [RH = 74%]
Pressure (altimeter): 29.97 inches Hg (1015.0 mb)
Winds: from the NW (310 degrees) at 10 MPH (9 knots; 4.6 m/s)
Visibility: 6 miles ( 9 km)
Ceiling: 2500 feet AGL
Clouds: few clouds at 1500 feet AGL
broken clouds at 2500 feet AGL
broken clouds at 6000 feet AGL
Weather: no significant weather observed at this time

METAR text: RCSS 180440Z 30010KT 9000 FEW015 BKN025 BKN060 25/20 Q1015 NOSIG RMK 30008KT/R10 A2999
Conditions at: RCSS (SUNGSHAN/TAIPEI , TW) observed 0440 UTC 18 March 2019
Temperature: 25.0°C (77°F)
Dewpoint: 20.0°C (68°F) [RH = 74%]
Pressure (altimeter): 29.97 inches Hg (1015.0 mb)
Winds: from the WNW (300 degrees) at 12 MPH (10 knots; 5.1 m/s)
Visibility: 6 miles ( 9 km)
Ceiling: 2500 feet AGL
Clouds: few clouds at 1500 feet AGL
broken clouds at 2500 feet AGL
broken clouds at 6000 feet AGL
Weather: no significant weather observed at this time

METAR text: RCSS 180430Z 30007KT 270V330 9000 FEW015 BKN025 BKN060 26/19 Q1015 NOSIG RMK A2999
Conditions at: RCSS (SUNGSHAN/TAIPEI , TW) observed 0430 UTC 18 March 2019
Temperature: 26.0°C (79°F)
Dewpoint: 19.0°C (66°F) [RH = 65%]
Pressure (altimeter): 29.97 inches Hg (1015.0 mb)
Winds: from the WNW (300 degrees) at 8 MPH (7 knots; 3.6 m/s)
Visibility: 6 miles ( 9 km)
Ceiling: 2500 feet AGL
Clouds: few clouds at 1500 feet AGL
broken clouds at 2500 feet AGL
broken clouds at 6000 feet AGL
Weather: no significant weather observed at this time

METAR text: RCSS 180419Z 30005KT 250V350 9000 FEW015 SCT025 BKN060 27/20 Q1015 NOSIG RMK A3000
Conditions at: RCSS (SUNGSHAN/TAIPEI , TW) observed 0419 UTC 18 March 2019
Temperature: 27.0°C (81°F)
Dewpoint: 20.0°C (68°F) [RH = 66%]
Pressure (altimeter): 29.97 inches Hg (1015.0 mb)
Winds: from the WNW (300 degrees) at 6 MPH (5 knots; 2.6 m/s)
Visibility: 6 miles ( 9 km)
Ceiling: 6000 feet AGL
Clouds: few clouds at 1500 feet AGL
scattered clouds at 2500 feet AGL
broken clouds at 6000 feet AGL
Weather: no significant weather observed at this time

METAR text: RCSS 180400Z 30006KT 270V340 8000 FEW015 SCT025 BKN060 25/19 Q1016 NOSIG RMK A3001
Conditions at: RCSS (SUNGSHAN/TAIPEI , TW) observed 0400 UTC 18 March 2019
Temperature: 25.0°C (77°F)
Dewpoint: 19.0°C (66°F) [RH = 69%]
Pressure (altimeter): 30.00 inches Hg (1016.0 mb)
Winds: from the WNW (300 degrees) at 7 MPH (6 knots; 3.1 m/s)
Visibility: 5 miles ( 8 km)
Ceiling: 6000 feet AGL
Clouds: few clouds at 1500 feet AGL
scattered clouds at 2500 feet AGL
broken clouds at 6000 feet AGL
Weather: no significant weather observed at this time

METAR text: RCSS 180330Z 30004KT 7000 FEW015 SCT025 BKN060 24/19 Q1016 NOSIG RMK A3003
Conditions at: RCSS (SUNGSHAN/TAIPEI , TW) observed 0330 UTC 18 March 2019
Temperature: 24.0°C (75°F)
Dewpoint: 19.0°C (66°F) [RH = 74%]
Pressure (altimeter): 30.00 inches Hg (1016.0 mb)
Winds: from the WNW (300 degrees) at 5 MPH (4 knots; 2.1 m/s)
Visibility: 4 miles ( 7 km)
Ceiling: 6000 feet AGL
Clouds: few clouds at 1500 feet AGL
scattered clouds at 2500 feet AGL
broken clouds at 6000 feet AGL
Weather: no significant weather observed at this time

METAR text: RCSS 180300Z 27004KT 230V330 7000 FEW015 SCT025 BKN060 24/19 Q1017 NOSIG RMK A3004
Conditions at: RCSS (SUNGSHAN/TAIPEI , TW) observed 0300 UTC 18 March 2019
Temperature: 24.0°C (75°F)
Dewpoint: 19.0°C (66°F) [RH = 74%]
Pressure (altimeter): 30.03 inches Hg (1017.0 mb)
Winds: from the W (270 degrees) at 5 MPH (4 knots; 2.1 m/s)
Visibility: 4 miles ( 7 km)
Ceiling: 6000 feet AGL
Clouds: few clouds at 1500 feet AGL
scattered clouds at 2500 feet AGL
broken clouds at 6000 feet AGL
Weather: no significant weather observed at this time

METAR text: RCSS 180230Z 29004KT 260V330 7000 FEW012 SCT025 BKN060 23/18 Q1017 NOSIG RMK A3005
Conditions at: RCSS (SUNGSHAN/TAIPEI , TW) observed 0230 UTC 18 March 2019
Temperature: 23.0°C (73°F)
Dewpoint: 18.0°C (64°F) [RH = 73%]
Pressure (altimeter): 30.03 inches Hg (1017.0 mb)
Winds: from the WNW (290 degrees) at 5 MPH (4 knots; 2.1 m/s)
Visibility: 4 miles ( 7 km)
Ceiling: 6000 feet AGL
Clouds: few clouds at 1200 feet AGL
scattered clouds at 2500 feet AGL
broken clouds at 6000 feet AGL
Weather: no significant weather observed at this time

METAR text: RCSS 180200Z 27004KT 210V340 7000 FEW012 SCT025 BKN060 24/19 Q1018 NOSIG RMK A3006
Conditions at: RCSS (SUNGSHAN/TAIPEI , TW) observed 0200 UTC 18 March 2019
Temperature: 24.0°C (75°F)
Dewpoint: 19.0°C (66°F) [RH = 74%]
Pressure (altimeter): 30.06 inches Hg (1018.0 mb)
Winds: from the W (270 degrees) at 5 MPH (4 knots; 2.1 m/s)
Visibility: 4 miles ( 7 km)
Ceiling: 6000 feet AGL
Clouds: few clouds at 1200 feet AGL
scattered clouds at 2500 feet AGL
broken clouds at 6000 feet AGL
Weather: no significant weather observed at this time

METAR text: RCSS 180142Z 24003KT 190V300 7000 FEW012 SCT025 BKN060 24/19 Q1018 NOSIG RMK A3006
Conditions at: RCSS (SUNGSHAN/TAIPEI , TW) observed 0142 UTC 18 March 2019
Temperature: 24.0°C (75°F)
Dewpoint: 19.0°C (66°F) [RH = 74%]
Pressure (altimeter): 30.06 inches Hg (1018.0 mb)
Winds: from the WSW (240 degrees) at 3 MPH (3 knots; 1.5 m/s)
Visibility: 4 miles ( 7 km)
Ceiling: 6000 feet AGL
Clouds: few clouds at 1200 feet AGL
scattered clouds at 2500 feet AGL
broken clouds at 6000 feet AGL
Weather: no significant weather observed at this time

METAR text: RCSS 180138Z 24004KT 200V280 7000 -RA FEW012 BKN020 BKN050 23/19 Q1018 NOSIG RMK A3006
Conditions at: RCSS (SUNGSHAN/TAIPEI , TW) observed 0138 UTC 18 March 2019
Temperature: 23.0°C (73°F)
Dewpoint: 19.0°C (66°F) [RH = 78%]
Pressure (altimeter): 30.06 inches Hg (1018.0 mb)
Winds: from the WSW (240 degrees) at 5 MPH (4 knots; 2.1 m/s)
Visibility: 4 miles ( 7 km)
Ceiling: 2000 feet AGL
Clouds: few clouds at 1200 feet AGL
broken clouds at 2000 feet AGL
broken clouds at 5000 feet AGL
Weather: -RA  (light rain)

METAR text: RCSS 180130Z VRB01KT 7000 -RA FEW012 BKN020 BKN050 21/19 Q1018 NOSIG RMK A3006
Conditions at: RCSS (SUNGSHAN/TAIPEI , TW) observed 0130 UTC 18 March 2019
Temperature: 21.0°C (70°F)
Dewpoint: 19.0°C (66°F) [RH = 88%]
Pressure (altimeter): 30.06 inches Hg (1018.0 mb)
Winds: variable direction winds at 1 MPH (1 knots; 0.5 m/s)
Visibility: 4 miles ( 7 km)
Ceiling: 2000 feet AGL
Clouds: few clouds at 1200 feet AGL
broken clouds at 2000 feet AGL
broken clouds at 5000 feet AGL
Weather: -RA  (light rain)

METAR text: RCSS 180100Z VRB01KT 7000 -RA FEW012 BKN020 BKN050 21/19 Q1018 NOSIG RMK A3006
Conditions at: RCSS (SUNGSHAN/TAIPEI , TW) observed 0100 UTC 18 March 2019
Temperature: 21.0°C (70°F)
Dewpoint: 19.0°C (66°F) [RH = 88%]
Pressure (altimeter): 30.06 inches Hg (1018.0 mb)
Winds: variable direction winds at 1 MPH (1 knots; 0.5 m/s)
Visibility: 4 miles ( 7 km)
Ceiling: 2000 feet AGL
Clouds: few clouds at 1200 feet AGL
broken clouds at 2000 feet AGL
broken clouds at 5000 feet AGL
Weather: -RA  (light rain)

METAR text: RCSS 180030Z 27003KT 220V290 7000 -RA FEW012 BKN020 BKN060 20/19 Q1018 NOSIG RMK A3007
Conditions at: RCSS (SUNGSHAN/TAIPEI , TW) observed 0030 UTC 18 March 2019
Temperature: 20.0°C (68°F)
Dewpoint: 19.0°C (66°F) [RH = 94%]
Pressure (altimeter): 30.06 inches Hg (1018.0 mb)
Winds: from the W (270 degrees) at 3 MPH (3 knots; 1.5 m/s)
Visibility: 4 miles ( 7 km)
Ceiling: 2000 feet AGL
Clouds: few clouds at 1200 feet AGL
broken clouds at 2000 feet AGL
broken clouds at 6000 feet AGL
Weather: -RA  (light rain)

METAR text: RCSS 180000Z 30003KT 260V330 7000 -RA FEW012 BKN020 BKN060 20/18 Q1018 NOSIG RMK A3007
Conditions at: RCSS (SUNGSHAN/TAIPEI , TW) observed 0000 UTC 18 March 2019
Temperature: 20.0°C (68°F)
Dewpoint: 18.0°C (64°F) [RH = 88%]
Pressure (altimeter): 30.06 inches Hg (1018.0 mb)
Winds: from the WNW (300 degrees) at 3 MPH (3 knots; 1.5 m/s)
Visibility: 4 miles ( 7 km)
Ceiling: 2000 feet AGL
Clouds: few clouds at 1200 feet AGL
broken clouds at 2000 feet AGL
broken clouds at 6000 feet AGL
Weather: -RA  (light rain)

METAR text: RCSS 172357Z 30003KT 7000 -RA FEW012 BKN020 BKN060 20/18 Q1018 NOSIG RMK A3007
Conditions at: RCSS (SUNGSHAN/TAIPEI , TW) observed 2357 UTC 17 March 2019
Temperature: 20.0°C (68°F)
Dewpoint: 18.0°C (64°F) [RH = 88%]
Pressure (altimeter): 30.06 inches Hg (1018.0 mb)
Winds: from the WNW (300 degrees) at 3 MPH (3 knots; 1.5 m/s)
Visibility: 4 miles ( 7 km)
Ceiling: 2000 feet AGL
Clouds: few clouds at 1200 feet AGL
broken clouds at 2000 feet AGL
broken clouds at 6000 feet AGL
Weather: -RA  (light rain)

METAR text: RCSS 172330Z 31003KT 280V350 7000 FEW012 BKN020 BKN060 20/18 Q1018 NOSIG RMK A3006
Conditions at: RCSS (SUNGSHAN/TAIPEI , TW) observed 2330 UTC 17 March 2019
Temperature: 20.0°C (68°F)
Dewpoint: 18.0°C (64°F) [RH = 88%]
Pressure (altimeter): 30.06 inches Hg (1018.0 mb)
Winds: from the NW (310 degrees) at 3 MPH (3 knots; 1.5 m/s)
Visibility: 4 miles ( 7 km)
Ceiling: 2000 feet AGL
Clouds: few clouds at 1200 feet AGL
broken clouds at 2000 feet AGL
broken clouds at 6000 feet AGL
Weather: no significant weather observed at this time

METAR text: RCSS 172300Z 29002KT 7000 FEW012 BKN020 BKN060 19/18 Q1018 NOSIG RMK A3006
Conditions at: RCSS (SUNGSHAN/TAIPEI , TW) observed 2300 UTC 17 March 2019
Temperature: 19.0°C (66°F)
Dewpoint: 18.0°C (64°F) [RH = 94%]
Pressure (altimeter): 30.06 inches Hg (1018.0 mb)
Winds: from the WNW (290 degrees) at 2 MPH (2 knots; 1.0 m/s)
Visibility: 4 miles ( 7 km)
Ceiling: 2000 feet AGL
Clouds: few clouds at 1200 feet AGL
broken clouds at 2000 feet AGL
broken clouds at 6000 feet AGL
Weather: no significant weather observed at this time

METAR text: RCSS 172230Z VRB01KT 5000 BR SCT008 BKN018 BKN060 19/18 Q1016 NOSIG RMK A3003
Conditions at: RCSS (SUNGSHAN/TAIPEI , TW) observed 2230 UTC 17 March 2019
Temperature: 19.0°C (66°F)
Dewpoint: 18.0°C (64°F) [RH = 94%]
Pressure (altimeter): 30.00 inches Hg (1016.0 mb)
Winds: variable direction winds at 1 MPH (1 knots; 0.5 m/s)
Visibility: 3 miles ( 5 km)
Ceiling: 1800 feet AGL
Clouds: scattered clouds at 800 feet AGL
broken clouds at 1800 feet AGL
broken clouds at 6000 feet AGL
Weather: BR  (mist)

METAR text: RCSS 172221Z VRB01KT 5000 BR SCT008 BKN018 BKN060 19/18 Q1016 NOSIG RMK A3003
Conditions at: RCSS (SUNGSHAN/TAIPEI , TW) observed 2221 UTC 17 March 2019
Temperature: 19.0°C (66°F)
Dewpoint: 18.0°C (64°F) [RH = 94%]
Pressure (altimeter): 30.00 inches Hg (1016.0 mb)
Winds: variable direction winds at 1 MPH (1 knots; 0.5 m/s)
Visibility: 3 miles ( 5 km)
Ceiling: 1800 feet AGL
Clouds: scattered clouds at 800 feet AGL
broken clouds at 1800 feet AGL
broken clouds at 6000 feet AGL
Weather: BR  (mist)

METAR text: RCSS 172200Z VRB01KT 4000 BR SCT008 BKN018 BKN040 18/17 Q1016 NOSIG RMK A3003
Conditions at: RCSS (SUNGSHAN/TAIPEI , TW) observed 2200 UTC 17 March 2019
Temperature: 18.0°C (64°F)
Dewpoint: 17.0°C (63°F) [RH = 94%]
Pressure (altimeter): 30.00 inches Hg (1016.0 mb)
Winds: variable direction winds at 1 MPH (1 knots; 0.5 m/s)
Visibility: 2.49 miles (4.01 km)
Ceiling: 1800 feet AGL
Clouds: scattered clouds at 800 feet AGL
broken clouds at 1800 feet AGL
broken clouds at 4000 feet AGL
Weather: BR  (mist)

METAR text: RCSS 172154Z VRB01KT 4000 BR SCT008 BKN018 BKN040 18/17 Q1016 NOSIG RMK A3003
Conditions at: RCSS (SUNGSHAN/TAIPEI , TW) observed 2154 UTC 17 March 2019
Temperature: 18.0°C (64°F)
Dewpoint: 17.0°C (63°F) [RH = 94%]
Pressure (altimeter): 30.00 inches Hg (1016.0 mb)
Winds: variable direction winds at 1 MPH (1 knots; 0.5 m/s)
Visibility: 2.49 miles (4.01 km)
Ceiling: 1800 feet AGL
Clouds: scattered clouds at 800 feet AGL
broken clouds at 1800 feet AGL
broken clouds at 4000 feet AGL
Weather: BR  (mist)

METAR text: RCSS 172100Z 07003KT 9999 SCT008 BKN018 BKN040 19/18 Q1016 NOSIG RMK A3002
Conditions at: RCSS (SUNGSHAN/TAIPEI , TW) observed 2100 UTC 17 March 2019
Temperature: 19.0°C (66°F)
Dewpoint: 18.0°C (64°F) [RH = 94%]
Pressure (altimeter): 30.00 inches Hg (1016.0 mb)
Winds: from the ENE (70 degrees) at 3 MPH (3 knots; 1.5 m/s)
Visibility: 6 or more miles (10+ km)
Ceiling: 1800 feet AGL
Clouds: scattered clouds at 800 feet AGL
broken clouds at 1800 feet AGL
broken clouds at 4000 feet AGL
Weather: no significant weather observed at this time

METAR text: RCSS 172000Z VRB02KT 9999 FEW008 BKN020 BKN080 19/18 Q1016 NOSIG RMK A3002
Conditions at: RCSS (SUNGSHAN/TAIPEI , TW) observed 2000 UTC 17 March 2019
Temperature: 19.0°C (66°F)
Dewpoint: 18.0°C (64°F) [RH = 94%]
Pressure (altimeter): 30.00 inches Hg (1016.0 mb)
Winds: variable direction winds at 2 MPH (2 knots; 1.0 m/s)
Visibility: 6 or more miles (10+ km)
Ceiling: 2000 feet AGL
Clouds: few clouds at 800 feet AGL
broken clouds at 2000 feet AGL
broken clouds at 8000 feet AGL
Weather: no significant weather observed at this time

METAR text: RCSS 171954Z VRB02KT 9999 FEW008 BKN020 BKN080 19/18 Q1016 NOSIG RMK A3003
Conditions at: RCSS (SUNGSHAN/TAIPEI , TW) observed 1954 UTC 17 March 2019
Temperature: 19.0°C (66°F)
Dewpoint: 18.0°C (64°F) [RH = 94%]
Pressure (altimeter): 30.00 inches Hg (1016.0 mb)
Winds: variable direction winds at 2 MPH (2 knots; 1.0 m/s)
Visibility: 6 or more miles (10+ km)
Ceiling: 2000 feet AGL
Clouds: few clouds at 800 feet AGL
broken clouds at 2000 feet AGL
broken clouds at 8000 feet AGL
Weather: no significant weather observed at this time

METAR text: RCSS 171900Z 12005KT 9999 -RA FEW012 BKN020 BKN080 20/18 Q1016 NOSIG RMK A3003
Conditions at: RCSS (SUNGSHAN/TAIPEI , TW) observed 1900 UTC 17 March 2019
Temperature: 20.0°C (68°F)
Dewpoint: 18.0°C (64°F) [RH = 88%]
Pressure (altimeter): 30.00 inches Hg (1016.0 mb)
Winds: from the ESE (120 degrees) at 6 MPH (5 knots; 2.6 m/s)
Visibility: 6 or more miles (10+ km)
Ceiling: 2000 feet AGL
Clouds: few clouds at 1200 feet AGL
broken clouds at 2000 feet AGL
broken clouds at 8000 feet AGL
Weather: -RA  (light rain)

METAR text: RCSS 171800Z 12007KT 9999 -RA FEW012 SCT060 BKN090 20/18 Q1017 NOSIG RMK A3004
Conditions at: RCSS (SUNGSHAN/TAIPEI , TW) observed 1800 UTC 17 March 2019
Temperature: 20.0°C (68°F)
Dewpoint: 18.0°C (64°F) [RH = 88%]
Pressure (altimeter): 30.03 inches Hg (1017.0 mb)
Winds: from the ESE (120 degrees) at 8 MPH (7 knots; 3.6 m/s)
Visibility: 6 or more miles (10+ km)
Ceiling: 9000 feet AGL
Clouds: few clouds at 1200 feet AGL
scattered clouds at 6000 feet AGL
broken clouds at 9000 feet AGL
Weather: -RA  (light rain)

Forecast for: RCSS (SUNGSHAN/TAIPEI , TW)
Text: TAF RCSS 190500Z 1906/2006 09012KT 9999 FEW015 BKN032
Forecast period: 0600 UTC 19 March 2019 to 0000 UTC 20 March 2019
Forecast type: FROM: standard forecast or significant change
Winds: from the E (90 degrees) at 14 MPH (12 knots; 6.2 m/s)
Visibility: 6 or more miles 10+ km)
Ceiling: 3200 feet AGL
Clouds: few clouds at 1500 feet AGL
broken clouds at 3200 feet AGL
Weather: no significant weather forecast for this period
Text: TEMPO 1906/1910 10017KT
Forecast period: 0600 to 1000 UTC 19 March 2019
Forecast type: TEMPORARY: The following changes expected for less than half the time period
Winds: from the E (100 degrees) at 20 MPH (17 knots; 8.7 m/s)
Visibility: missing
Ceiling: unknown
Clouds: missing
Weather: no significant weather forecast for this period
Text: TEMPO 1918/1924 VRB03KT
Forecast period: 1800 UTC 19 March 2019 to 0000 UTC 20 March 2019
Forecast type: TEMPORARY: The following changes expected for less than half the time period
Winds: variable direction winds at 3 MPH (3 knots; 1.5 m/s)
Visibility: missing
Ceiling: unknown
Clouds: missing
Weather: no significant weather forecast for this period
Text: BECMG 2000/2002 29005KT
Forecast period: 0000 to 0600 UTC 20 March 2019
Forecast type: BECOMING: Conditions expected to become as follows by 0200 UTC 20 March 2019
Winds: from the WNW (290 degrees) at 6 MPH (5 knots; 2.6 m/s)
Visibility: 6 or more miles 10+ km)
Ceiling: 3200 feet AGL
Clouds: few clouds at 1500 feet AGL
broken clouds at 3200 feet AGL
Weather: no significant weather forecast for this period